KMYF/MYF METAR and TAF weather

Enter ICAO airport designator
Station Type Date Time Source
KMYF METAR 2019/08/22 04:53 UTC NOAA

KMYF 220453Z AUTO 32003KT 10SM CLR 20/17 A2980 RMK AO2 SLP086 T02000172 TSNO


Station Type Date Time Source
KMYF Decoded METAR 2019/08/22 04:53 UTC NOAA

Station name not available
Aug 22, 2019 - 12:53 AM EDT / 2019.08.22 0453 UTC
Wind: from the NW (320 degrees) at 3 MPH (3 KT):0
Visibility: 10 mile(s):0
Sky conditions: clear
Temperature: 68.0 F (20.0 C)
Dew Point: 63.0 F (17.2 C)
Relative Humidity: 83%
Pressure (altimeter): 29.8 in. Hg (1009 hPa)
ob: KMYF 220453Z AUTO 32003KT 10SM CLR 20/17 A2980 RMK AO2 SLP086 T02000172 TSNO
cycle: 5

Station Type Date Time Source
KMYF TAF UTC NOAA

Error!

Example: see airport list